Rainbow (RB1) Station Data

Red Flag Warning: No
Fire Weather Zone: 250
SDGE Region: North East
Lat/Lon: 33.419/-117.144

Observations

Time Wind Speed/Gust Temp(F) RH Fuel Moist Fuel Temp(F) Dewpt(F) Tmax(F) Tmin(F) Accum Precip 10-min Precip SL Press(mb)
4/30 12:00am 61 2 G 4 59° 24% - - 22° 82.4° 55.8° - - -
4/29 11:50pm 62 2 G 3 59° 24% - - 22° 82.4° 55.8° - - -
4/29 11:40pm 71 2 G 4 57° 27% - - 24° 82.4° 55.8° - - -
4/29 11:30pm 20 2 G 4 57° 29% - - 25° 82.4° 55.9° - - -
4/29 11:20pm 30 2 G 3 57° 28% - - 25° 82.4° 56.3° - - -
4/29 11:10pm 24 1 G 2 57° 31% - - 27° 82.4° 56.3° - - -
4/29 11:00pm 73 2 G 3 57° 30% - - 26° 82.4° 56.5° - - -
4/29 10:50pm 348 1 G 3 57° 30% - - 26° 82.4° 56.5° - - -
4/29 10:40pm 28 1 G 3 58° 28% - - 25° 82.4° 57.1° - - -
4/29 10:30pm 48 1 G 2 59° 25% - - 24° 82.4° 58.4° - - -
4/29 10:20pm 83 1 G 2 59° 25% - - 24° 82.4° 58.4° - - -
4/29 10:10pm 42 2 G 3 60° 24% - - 23° 82.4° 58.4° - - -
4/29 10:00pm 31 2 G 4 60° 24% - - 23° 82.4° 58.4° - - -
4/29 9:50pm 47 2 G 4 59° 27% - - 25° 82.4° 58.4° - - -
4/29 9:40pm 71 2 G 3 60° 27% - - 25° 82.4° 58.4° - - -
4/29 9:30pm 55 1 G 2 60° 28% - - 27° 82.4° 58.4° - - -
4/29 9:20pm 66 2 G 3 61° 25% - - 25° 82.4° 58.4° - - -
4/29 9:10pm 33 1 G 3 61° 27% - - 27° 82.4° 58.4° - - -
4/29 9:00pm 358 1 G 4 62° 25% - - 25° 82.4° 58.4° - - -
4/29 8:50pm 26 3 G 5 62° 24% - - 25° 82.4° 58.4° - - -
4/29 8:40pm 359 2 G 3 64° 23% - - 25° 82.4° 58.4° - - -
4/29 8:30pm 338 1 G 2 65° 21% - - 24° 82.4° 58.4° - - -
4/29 8:20pm 133 1 G 3 66° 19% - - 23° 82.4° 58.4° - - -
4/29 8:10pm 143 1 G 3 66° 19% - - 23° 82.4° 58.4° - - -
4/29 8:00pm 144 1 G 5 67° 19% - - 23° 82.4° 58.4° - - -
4/29 7:50pm 161 3 G 5 68° 18% - - 23° 82.4° 58.4° - - -
4/29 7:40pm 177 3 G 6 68° 18% - - 23° 82.4° 58.4° - - -
4/29 7:30pm 182 5 G 9 69° 18% - - 24° 82.4° 58.4° - - -
4/29 7:20pm 176 7 G 12 69° 18% - - 24° 82.4° 58.4° - - -
4/29 7:10pm 181 8 G 13 70° 18% - - 25° 82.4° 58.4° - - -
4/29 7:00pm 178 8 G 12 71° 16% - - 23° 82.4° 58.4° - - -
4/29 6:50pm 185 9 G 12 72° 15% - - 22° 82.4° 58.4° - - -
4/29 6:40pm 180 9 G 14 72° 13% - - 20° 82.4° 58.4° - - -
4/29 6:30pm 186 10 G 15 73° 13% - - 19° 82.4° 58.4° - - -
4/29 6:20pm 190 10 G 15 74° 13% - - 19° 82.4° 58.4° - - -
4/29 6:10pm 194 10 G 15 74° 12% - - 18° 82.4° 58.4° - - -
4/29 6:00pm 194 10 G 14 75° 11% - - 17° 82.4° 58.4° - - -
4/29 5:50pm 197 9 G 14 75° 11% - - 18° 82.4° 58.4° - - -
4/29 5:40pm 198 10 G 14 76° 12% - - 20° 82.4° 58.4° - - -
4/29 5:30pm 190 9 G 15 76° 12% - - 19° 82.4° 58.4° - - -
4/29 5:20pm 183 10 G 15 76° 11% - - 18° 82.4° 58.4° - - -
4/29 5:10pm 195 10 G 16 77° 11% - - 18° 82.4° 58.4° - - -
4/29 5:00pm 199 10 G 15 77° 11% - - 17° 82.4° 58.4° - - -
4/29 4:50pm 189 10 G 16 77° 11% - - 18° 82.4° 58.4° - - -
4/29 4:40pm 181 11 G 17 77° 11% - - 19° 82.4° 58.4° - - -
4/29 4:30pm 189 12 G 18 77° 12% - - 20° 82.4° 58.4° - - -
4/29 4:20pm 189 12 G 18 77° 12% - - 21° 82.4° 58.4° - - -
4/29 4:10pm 193 11 G 19 78° 13% - - 23° 82.4° 58.4° - - -
4/29 4:00pm 181 13 G 18 78° 11% - - 20° 82.4° 58.4° - - -
4/29 3:50pm 203 10 G 15 79° 11% - - 20° 82.4° 58.4° - - -
4/29 3:40pm 210 11 G 17 79° 11% - - 19° 82.4° 58.4° - - -
4/29 3:30pm 212 13 G 21 79° 11% - - 19° 82.4° 58.4° - - -
4/29 3:20pm 141 7 G 14 80° 11% - - 20° 82.4° 58.4° - - -
4/29 3:10pm 222 3 G 12 82° 7% - - 13° 82.4° 58.4° - - -
4/29 3:00pm 5 6 G 16 81° 6% - - 82° 58.4° - - -
4/29 2:50pm 25 5 G 16 81° 6% - - 82° 58.4° - - -
4/29 2:40pm 349 6 G 14 81° 7% - - 10° 82° 58.4° - - -
4/29 2:30pm 1 6 G 13 81° 7% - - 10° 82° 58.4° - - -
4/29 2:20pm 349 5 G 10 81° 6% - - 82° 58.4° - - -
4/29 2:10pm 89 6 G 13 80° 6% - - 81° 58.4° - - -
4/29 2:00pm 342 6 G 13 80° 6% - - 80.7° 58.4° - - -
4/29 1:50pm 333 7 G 12 80° 6% - - 80.7° 58.4° - - -
4/29 1:40pm 40 3 G 11 80° 6% - - 80.7° 58.4° - - -
4/29 1:30pm 17 6 G 14 79° 6% - - 80.1° 58.4° - - -
4/29 1:20pm 342 7 G 14 79° 7% - - 80.1° 58.4° - - -
4/29 1:10pm 136 5 G 12 78° 7% - - 79.4° 58.4° - - -
4/29 1:00pm 5 6 G 15 79° 7% - - 79.4° 58.4° - - -
4/29 12:50pm 341 4 G 13 78° 7% - - 78.9° 58.4° - - -
4/29 12:40pm 16 6 G 12 77° 6% - - 78.9° 58.4° - - -
4/29 12:30pm 2 6 G 15 78° 7% - - 78.9° 58.4° - - -
4/29 12:20pm 359 9 G 13 77° 7% - - 77.8° 58.4° - - -
4/29 12:10pm 337 7 G 15 77° 7% - - 77.7° 58.4° - - -
4/29 12:00pm 9 7 G 13 77° 7% - - 77.6° 58.4° - - -
4/29 11:50am 13 7 G 14 77° 7% - - 77.5° 58.4° - - -
4/29 11:40am 17 7 G 13 76° 7% - - 77.2° 58.4° - - -
4/29 11:30am 2 8 G 16 75° 7% - - 75.9° 58.4° - - -
4/29 11:20am 8 9 G 15 75° 7% - - 75.9° 58.4° - - -
4/29 11:10am 5 8 G 19 75° 7% - - 75.9° 58.4° - - -
4/29 11:00am 1 7 G 14 74° 8% - - 75° 58.4° - - -
4/29 10:50am 8 7 G 13 74° 8% - - 74.8° 58.4° - - -
4/29 10:40am 16 6 G 12 74° 8% - - 10° 74.8° 58.4° - - -
4/29 10:30am 17 8 G 14 73° 8% - - 73.4° 58.4° - - -
4/29 10:20am 6 7 G 14 72° 8% - - 72.9° 58.4° - - -
4/29 10:10am 0 8 G 15 72° 9% - - 72° 58.4° - - -
4/29 10:00am 1 7 G 13 71° 9% - - 71.6° 58.4° - - -
4/29 9:50am 14 6 G 12 71° 9% - - 10° 71.4° 58.4° - - -
4/29 9:40am 3 6 G 11 70° 10% - - 11° 71° 58.4° - - -
4/29 9:30am 19 5 G 12 70° 10% - - 11° 70.5° 58.4° - - -
4/29 9:20am 19 8 G 15 69° 10% - - 10° 69.4° 58.4° - - -
4/29 9:10am 15 9 G 16 68° 11% - - 11° 68.6° 58.4° - - -
4/29 9:00am 9 11 G 19 67° 11% - - 11° 67.7° 58.4° - - -
4/29 8:50am 2 12 G 19 67° 11% - - 11° 66.9° 58.4° - - -
4/29 8:40am 13 12 G 19 66° 12% - - 11° 66.2° 58.4° - - -
4/29 8:30am 16 11 G 18 66° 12% - - 11° 66° 58.4° - - -
4/29 8:20am 15 9 G 14 65° 12% - - 11° 65.4° 58.4° - - -
4/29 8:10am 7 10 G 17 65° 13% - - 12° 64.9° 58.4° - - -
4/29 8:00am 8 10 G 19 64° 12% - - 11° 64.4° 58.4° - - -
4/29 7:50am 14 10 G 19 63° 13% - - 11° 64.3° 58.4° - - -
4/29 7:40am 23 12 G 22 62° 13% - - 11° 64.3° 58.4° - - -
4/29 7:30am 16 11 G 21 60° 15% - - 12° 64.3° 58.4° - - -
4/29 7:20am 13 13 G 21 59° 16% - - 14° 64.3° 58.4° - - -
4/29 7:10am 9 13 G 20 60° 15% - - 11° 64.3° 58.4° - - -
4/29 7:00am 10 13 G 21 61° 13% - - 11° 64.3° 58.4° - - -
4/29 6:50am 14 10 G 19 60° 14% - - 10° 64.3° 58.4° - - -
4/29 6:40am 1 9 G 15 59° 14% - - 11° 64.3° 58.4° - - -
4/29 6:30am 14 11 G 16 59° 14% - - 10° 64.3° 58.4° - - -
4/29 6:20am 8 11 G 19 59° 15% - - 11° 64.3° 58.4° - - -
4/29 6:10am 6 12 G 20 60° 14% - - 10° 64.3° 58.9° - - -
4/29 6:00am 13 14 G 25 63° 12% - - 64.3° 59.1° - - -
4/29 5:50am 6 12 G 21 61° 13% - - 10° 64.3° 59.1° - - -
4/29 5:40am 6 11 G 16 60° 14% - - 11° 64.3° 59.1° - - -
4/29 5:30am 8 11 G 19 59° 15% - - 11° 64.3° 59.1° - - -
4/29 5:20am 7 14 G 21 59° 15% - - 11° 64.3° 59.2° - - -
4/29 5:10am 7 14 G 20 60° 14% - - 11° 64.3° 59.4° - - -
4/29 5:00am 7 13 G 20 60° 15% - - 11° 64.3° 59.6° - - -
4/29 4:50am 0 9 G 17 61° 14% - - 11° 64.3° 59.7° - - -
4/29 4:40am 13 13 G 23 63° 12% - - 10° 64.3° 59.8° - - -
4/29 4:30am 13 13 G 20 62° 13% - - 11° 64.3° 59.8° - - -
4/29 4:20am 9 13 G 20 61° 14% - - 12° 64.3° 59.8° - - -
4/29 4:10am 10 12 G 17 61° 14% - - 12° 64.3° 59.8° - - -
4/29 4:00am 10 12 G 18 62° 13% - - 12° 64.3° 59.8° - - -
4/29 3:50am 12 14 G 21 63° 13% - - 11° 64.3° 59.8° - - -
4/29 3:40am 11 13 G 19 62° 14% - - 13° 64.3° 59.8° - - -
4/29 3:30am 9 13 G 18 63° 14% - - 13° 64.3° 59.8° - - -
4/29 3:20am 12 13 G 21 63° 14% - - 13° 64.3° 59.8° - - -
4/29 3:10am 9 15 G 22 64° 13% - - 13° 64.3° 59.8° - - -
4/29 3:00am 6 14 G 20 63° 15% - - 15° 63.8° 59.8° - - -
4/29 2:50am 7 14 G 18 63° 18% - - 19° 62.9° 59.8° - - -
4/29 2:40am 6 13 G 19 62° 20% - - 20° 62.8° 59.8° - - -
4/29 2:30am 9 14 G 22 62° 21% - - 22° 62.8° 59.8° - - -
4/29 2:20am 10 12 G 19 62° 25% - - 25° 62.8° 59.8° - - -
4/29 2:10am 9 11 G 18 61° 30% - - 29° 62.8° 59.8° - - -
4/29 2:00am 8 11 G 17 60° 34% - - 32° 62.8° 59.8° - - -
4/29 1:50am 3 10 G 16 60° 35% - - 33° 62.8° 59.9° - - -
4/29 1:40am 6 10 G 15 61° 33% - - 32° 62.8° 60.4° - - -
4/29 1:30am 6 9 G 15 62° 32% - - 32° 62.8° 60.4° - - -
4/29 1:20am 4 8 G 13 62° 33% - - 33° 62.8° 60.4° - - -
4/29 1:10am 6 8 G 13 62° 39% - - 36° 62° 60.4° - - -
4/29 1:00am 5 8 G 14 61° 43% - - 38° 62° 60.4° - - -
4/29 12:50am 7 9 G 14 61° 43% - - 38° 62° 60.4° - - -
4/29 12:40am 10 8 G 13 61° 43% - - 38° 62° 60.4° - - -
4/29 12:30am 9 9 G 13 61° 44% - - 39° 62° 60.4° - - -
4/29 12:20am 9 9 G 13 61° 43% - - 39° 62° 60.9° - - -
4/29 12:10am 6 9 G 16 62° 41% - - 38° 62° 61.4° - - -
4/29 12:00am 13 5 G 13 61° 42% - - 38° 73.9° 49.9° - - -
4/28 11:50pm 76 2 G 5 60° 44% - - 38° 73.9° 49.9° - - -
4/28 11:40pm 87 2 G 7 59° 48% - - 39° 73.9° 49.9° - - -
4/28 11:30pm 29 0 G 4 57° 55% - - 41° 73.9° 49.9° - - -
4/28 11:20pm 305 1 G 2 56° 58% - - 42° 73.9° 49.9° - - -
4/28 11:10pm 220 1 G 2 56° 56% - - 41° 73.9° 49.9° - - -
4/28 11:00pm 353 1 G 1 58° 52% - - 40° 73.9° 49.9° - - -
4/28 10:50pm 70 2 G 3 57° 52% - - 40° 73.9° 49.9° - - -
4/28 10:40pm 43 2 G 4 57° 53% - - 40° 73.9° 49.9° - - -
4/28 10:30pm 55 2 G 5 57° 55% - - 41° 73.9° 49.9° - - -
4/28 10:20pm 73 2 G 4 58° 51% - - 40° 73.9° 49.9° - - -
4/28 10:10pm 325 1 G 2 58° 56% - - 42° 73.9° 49.9° - - -
4/28 10:00pm 109 1 G 3 58° 56% - - 42° 73.9° 49.9° - - -
4/28 9:50pm 192 1 G 2 58° 54% - - 42° 73.9° 49.9° - - -
4/28 9:40pm 25 1 G 4 58° 52% - - 41° 73.9° 49.9° - - -
4/28 9:30pm 31 3 G 4 58° 54% - - 41° 73.9° 49.9° - - -
4/28 9:20pm 27 3 G 4 58° 55% - - 42° 73.9° 49.9° - - -
4/28 9:10pm 53 1 G 2 59° 53% - - 42° 73.9° 49.9° - - -
4/28 9:00pm 79 1 G 2 59° 54% - - 42° 73.9° 49.9° - - -
4/28 8:50pm 118 1 G 2 60° 53% - - 42° 73.9° 49.9° - - -
4/28 8:40pm 43 2 G 3 60° 51% - - 42° 73.9° 49.9° - - -
4/28 8:30pm 55 1 G 2 61° 49% - - 42° 73.9° 49.9° - - -
4/28 8:20pm 23 0 G 1 62° 47% - - 42° 73.9° 49.9° - - -
4/28 8:10pm 193 1 G 2 63° 44% - - 41° 73.9° 49.9° - - -
4/28 8:00pm 237 2 G 3 64° 44% - - 41° 73.9° 49.9° - - -
4/28 7:50pm 240 3 G 5 64° 42% - - 40° 73.9° 49.9° - - -
4/28 7:40pm 236 3 G 6 64° 41% - - 40° 73.9° 49.9° - - -
4/28 7:30pm 224 4 G 6 65° 40% - - 40° 73.9° 49.9° - - -
4/28 7:20pm 206 4 G 7 65° 38% - - 40° 73.9° 49.9° - - -
4/28 7:10pm 217 5 G 10 66° 37% - - 39° 73.9° 49.9° - - -
4/28 7:00pm 207 6 G 10 67° 36% - - 39° 73.9° 49.9° - - -
4/28 6:50pm 194 7 G 11 67° 35% - - 39° 73.9° 49.9° - - -
4/28 6:40pm 191 8 G 12 68° 33% - - 38° 73.9° 49.9° - - -
4/28 6:30pm 189 7 G 11 69° 32% - - 38° 73.9° 49.9° - - -
4/28 6:20pm 186 8 G 13 69° 30% - - 36° 73.9° 49.9° - - -
4/28 6:10pm 190 8 G 12 70° 28% - - 35° 73.9° 49.9° - - -
4/28 6:00pm 177 7 G 12 70° 28% - - 36° 73.9° 49.9° - - -